createdAt,value
2022-09-25T00:01:11.695Z,4.87
2022-09-25T00:04:19.046Z,4.35
2022-09-25T00:07:25.423Z,5.47
2022-09-25T00:10:32.782Z,4.60
2022-09-25T00:13:38.602Z,4.90
2022-09-25T00:16:45.718Z,7.67
2022-09-25T00:19:57.837Z,6.83
2022-09-25T00:23:06.262Z,5.65
2022-09-25T00:26:12.608Z,5.90
2022-09-25T00:29:18.522Z,5.47
2022-09-25T00:32:25.141Z,5.62
2022-09-25T00:35:32.705Z,5.75
2022-09-25T00:38:39.092Z,8.43
2022-09-25T00:41:45.571Z,5.62
2022-09-25T00:45:14.124Z,5.47
2022-09-25T00:48:20.606Z,5.58
2022-09-25T00:51:25.869Z,5.35
2022-09-25T00:54:36.437Z,6.62
2022-09-25T00:57:44.567Z,5.90
2022-09-25T01:00:50.404Z,6.05
2022-09-25T01:03:56.969Z,6.40
2022-09-25T01:06:57.228Z,5.28
2022-09-25T01:10:05.349Z,6.12
2022-09-25T01:13:11.163Z,6.08
2022-09-25T01:16:31.068Z,8.48
2022-09-25T01:19:45.015Z,6.15
2022-09-25T01:23:21.185Z,5.87
2022-09-25T01:27:00.402Z,5.55
2022-09-25T01:30:21.010Z,5.12
2022-09-25T01:33:32.138Z,7.80
2022-09-25T01:36:52.038Z,9.65
2022-09-25T01:40:18.620Z,6.67
2022-09-25T01:43:33.470Z,5.58
2022-09-25T01:46:46.875Z,6.72
2022-09-25T01:50:09.031Z,8.50
2022-09-25T01:53:18.863Z,5.25
2022-09-25T01:56:39.852Z,8.05
2022-09-25T02:00:09.370Z,9.15
2022-09-25T02:03:33.115Z,7.53
2022-09-25T02:06:40.388Z,6.60
2022-09-25T02:09:52.989Z,6.15
2022-09-25T02:13:04.840Z,7.45
2022-09-25T02:16:20.130Z,6.80
2022-09-25T02:19:46.714Z,10.05
2022-09-25T02:22:52.411Z,7.35
2022-09-25T02:26:07.020Z,7.37
2022-09-25T02:29:15.910Z,11.03
2022-09-25T02:32:28.676Z,9.03
2022-09-25T02:35:27.748Z,7.85
2022-09-25T02:38:33.902Z,7.28
2022-09-25T02:42:01.384Z,6.97
2022-09-25T02:45:31.119Z,9.53
2022-09-25T02:48:55.714Z,7.58
2022-09-25T02:52:13.806Z,7.83
2022-09-25T02:55:44.090Z,9.85
2022-09-25T02:59:05.361Z,6.97
2022-09-25T03:02:12.394Z,8.13
2022-09-25T03:05:19.127Z,7.10
2022-09-25T03:08:46.213Z,8.03
2022-09-25T03:11:52.738Z,7.70
2022-09-25T03:14:58.395Z,9.38
2022-09-25T03:18:05.012Z,7.80
2022-09-25T03:21:10.816Z,7.17
2022-09-25T03:24:16.670Z,6.37
2022-09-25T03:27:21.945Z,7.30
2022-09-25T03:30:28.458Z,8.25
2022-09-25T03:33:36.876Z,7.45
2022-09-25T03:36:45.125Z,6.95
2022-09-25T03:39:51.050Z,9.58
2022-09-25T03:42:57.452Z,6.17
2022-09-25T03:46:03.303Z,7.20
2022-09-25T03:49:08.725Z,7.78
2022-09-25T03:52:19.439Z,8.85
2022-09-25T03:55:26.989Z,10.68
2022-09-25T03:58:32.904Z,9.30
2022-09-25T04:01:38.540Z,12.75
2022-09-25T04:04:45.570Z,6.25
2022-09-25T04:07:52.052Z,7.30
2022-09-25T04:10:59.727Z,6.60
2022-09-25T04:14:06.083Z,6.17
2022-09-25T04:17:11.658Z,7.83
2022-09-25T04:20:18.365Z,5.83
2022-09-25T04:23:24.446Z,6.40
2022-09-25T04:26:31.001Z,8.13
2022-09-25T04:29:39.091Z,7.78
2022-09-25T04:33:02.602Z,7.53
2022-09-25T04:36:08.105Z,11.05
2022-09-25T04:39:14.153Z,6.47
2022-09-25T04:42:20.110Z,6.42
2022-09-25T04:45:26.923Z,6.53
2022-09-25T04:48:33.132Z,7.30
2022-09-25T04:51:38.550Z,7.62
2022-09-25T04:54:44.327Z,6.62
2022-09-25T04:57:59.271Z,6.85
2022-09-25T05:00:59.759Z,5.72
2022-09-25T05:04:13.808Z,8.50
2022-09-25T05:07:13.313Z,5.25
2022-09-25T05:10:21.385Z,5.58
2022-09-25T05:13:27.747Z,6.22
2022-09-25T05:16:37.947Z,9.65
2022-09-25T05:19:44.840Z,6.12
2022-09-25T05:22:49.635Z,6.12
2022-09-25T05:25:54.742Z,6.25
2022-09-25T05:29:04.245Z,5.87
2022-09-25T05:32:11.599Z,6.40
2022-09-25T05:35:21.194Z,6.80
2022-09-25T05:38:27.600Z,6.22
2022-09-25T05:41:33.256Z,7.67
2022-09-25T05:44:39.289Z,6.17
2022-09-25T05:47:46.097Z,6.78
2022-09-25T05:50:54.066Z,5.90
2022-09-25T05:54:02.038Z,9.93
2022-09-25T05:57:08.932Z,5.90
2022-09-25T06:00:17.209Z,6.35
2022-09-25T06:03:23.804Z,9.20
2022-09-25T06:06:30.410Z,7.72
2022-09-25T06:09:36.098Z,6.62
2022-09-25T06:12:45.938Z,9.95
2022-09-25T06:15:55.493Z,6.80
2022-09-25T06:19:04.282Z,7.47
2022-09-25T06:22:09.981Z,5.35
2022-09-25T06:25:18.036Z,5.78
2022-09-25T06:28:23.548Z,7.67
2022-09-25T06:31:28.860Z,7.33
2022-09-25T06:34:36.328Z,7.83
2022-09-25T06:37:43.588Z,4.42
2022-09-25T06:40:50.215Z,6.92
2022-09-25T06:43:56.430Z,4.92
2022-09-25T06:47:06.467Z,5.50
2022-09-25T06:50:12.938Z,5.58
2022-09-25T06:53:19.978Z,6.03
2022-09-25T06:56:26.100Z,5.62
2022-09-25T06:59:33.669Z,5.75
2022-09-25T07:02:58.191Z,3.50
2022-09-25T07:06:07.167Z,3.90
2022-09-25T07:09:13.783Z,3.35
2022-09-25T07:12:20.560Z,4.40
2022-09-25T07:15:26.615Z,4.62
2022-09-25T07:18:34.763Z,4.83
2022-09-25T07:21:40.266Z,4.17
2022-09-25T07:24:46.803Z,6.35
2022-09-25T07:27:54.537Z,3.87
2022-09-25T07:31:02.807Z,4.75
2022-09-25T07:34:11.228Z,4.33
2022-09-25T07:37:16.544Z,3.83
2022-09-25T07:40:25.430Z,3.30
2022-09-25T07:43:32.377Z,4.33
2022-09-25T07:46:41.251Z,4.62
2022-09-25T07:49:48.398Z,3.50
2022-09-25T07:52:55.414Z,3.95
2022-09-25T07:56:06.049Z,8.03
2022-09-25T07:59:10.059Z,3.15
2022-09-25T08:02:17.087Z,3.40
2022-09-25T08:05:25.206Z,4.10
2022-09-25T08:08:32.650Z,3.25
2022-09-25T08:11:38.760Z,4.75
2022-09-25T08:14:48.721Z,5.08
2022-09-25T08:17:54.012Z,7.78
2022-09-25T08:21:01.441Z,6.90
2022-09-25T08:24:07.962Z,3.15
2022-09-25T08:27:12.191Z,3.77
2022-09-25T08:29:59.767Z,2.70
2022-09-25T08:32:52.302Z,6.33
2022-09-25T08:35:41.412Z,3.47
2022-09-25T08:38:39.905Z,2.83
2022-09-25T08:41:58.826Z,3.87
2022-09-25T08:45:25.175Z,2.25
2022-09-25T08:48:53.708Z,4.90
2022-09-25T08:52:01.065Z,5.10
2022-09-25T08:55:07.661Z,3.72
2022-09-25T08:58:13.984Z,3.37
2022-09-25T09:01:24.607Z,6.08
2022-09-25T09:04:49.572Z,3.65
2022-09-25T09:08:01.279Z,2.72
2022-09-25T09:11:16.156Z,5.37
2022-09-25T09:14:32.511Z,2.70
2022-09-25T09:17:43.223Z,4.15
2022-09-25T09:20:59.246Z,4.17
2022-09-25T09:24:28.591Z,5.60
2022-09-25T09:27:48.430Z,2.62
2022-09-25T09:31:04.720Z,2.05
2022-09-25T09:35:04.100Z,7.12
2022-09-25T09:38:23.961Z,3.12
2022-09-25T09:41:49.768Z,3.35
2022-09-25T09:45:28.685Z,3.65
2022-09-25T09:48:44.593Z,3.42
2022-09-25T09:52:28.234Z,4.35
2022-09-25T09:55:56.812Z,2.40
2022-09-25T09:59:16.201Z,5.37
2022-09-25T10:02:54.383Z,2.22
2022-09-25T10:06:08.104Z,2.98
2022-09-25T10:09:15.497Z,2.60
2022-09-25T10:12:46.584Z,3.77
2022-09-25T10:16:01.010Z,3.15
2022-09-25T10:19:37.449Z,4.30
2022-09-25T10:22:47.738Z,4.58
2022-09-25T10:25:56.352Z,2.45
2022-09-25T10:29:04.191Z,4.15
2022-09-25T10:32:15.392Z,5.12
2022-09-25T10:35:42.446Z,3.70
2022-09-25T10:39:17.985Z,3.60
2022-09-25T10:42:08.771Z,4.53
2022-09-25T10:45:14.135Z,3.22
2022-09-25T10:51:27.839Z,4.65
2022-09-25T10:54:33.281Z,5.30
2022-09-25T10:57:51.706Z,3.22
2022-09-25T11:01:17.369Z,3.45
2022-09-25T11:04:45.918Z,2.47
2022-09-25T11:07:51.174Z,3.08
2022-09-25T11:11:21.235Z,5.90
2022-09-25T11:14:47.456Z,3.50
2022-09-25T11:17:56.401Z,3.25
2022-09-25T11:21:04.430Z,3.17
2022-09-25T11:24:35.642Z,4.65
2022-09-25T11:27:59.071Z,5.17
2022-09-25T11:31:16.694Z,2.85
2022-09-25T11:34:42.820Z,3.65
2022-09-25T11:38:15.857Z,2.35
2022-09-25T11:41:26.248Z,7.67
2022-09-25T11:44:42.955Z,6.30
2022-09-25T11:48:08.449Z,2.80
2022-09-25T11:51:45.897Z,2.37
2022-09-25T11:55:13.095Z,2.75
2022-09-25T11:58:42.675Z,2.70
2022-09-25T12:01:56.879Z,4.47
2022-09-25T12:05:17.951Z,2.75
2022-09-25T12:09:07.890Z,4.47
2022-09-25T12:12:30.886Z,3.27
2022-09-25T12:16:00.948Z,13.40
2022-09-25T12:19:17.782Z,9.08
2022-09-25T12:22:48.024Z,8.18
2022-09-25T12:26:34.467Z,3.95
2022-09-25T12:30:29.227Z,11.50
2022-09-25T12:33:41.258Z,5.35
2022-09-25T12:37:27.735Z,2.95
2022-09-25T12:40:54.056Z,4.05
2022-09-25T12:44:10.949Z,5.05
2022-09-25T12:47:32.572Z,3.62
2022-09-25T12:50:43.907Z,2.60
2022-09-25T12:53:57.619Z,3.95
2022-09-25T12:57:14.057Z,4.37
2022-09-25T13:00:35.228Z,2.87
2022-09-25T13:03:53.757Z,3.40
2022-09-25T13:07:16.646Z,3.45
2022-09-25T13:10:48.696Z,3.17
2022-09-25T13:14:05.551Z,4.97
2022-09-25T13:17:11.026Z,3.22
2022-09-25T13:20:43.870Z,3.80
2022-09-25T13:23:50.985Z,2.12
2022-09-25T13:27:05.081Z,3.35
2022-09-25T13:30:15.295Z,2.58
2022-09-25T13:33:23.197Z,2.10
2022-09-25T13:36:39.466Z,1.90
2022-09-25T13:40:19.581Z,2.75
2022-09-25T13:43:44.947Z,1.92
2022-09-25T13:46:49.785Z,2.08
2022-09-25T13:50:06.690Z,1.82
2022-09-25T13:53:28.586Z,2.58
2022-09-25T13:56:41.330Z,4.60
2022-09-25T13:59:52.752Z,3.87
2022-09-25T14:02:59.768Z,3.17
2022-09-25T14:06:05.820Z,5.58
2022-09-25T14:09:16.301Z,5.95
2022-09-25T14:12:36.010Z,3.45
2022-09-25T14:15:51.523Z,6.92
2022-09-25T14:19:03.033Z,2.55
2022-09-25T14:22:08.911Z,2.05
2022-09-25T14:25:15.223Z,2.42
2022-09-25T14:28:39.128Z,3.02
2022-09-25T14:31:50.489Z,2.92
2022-09-25T14:35:13.215Z,3.27
2022-09-25T14:38:32.922Z,2.67
2022-09-25T14:41:55.567Z,3.72
2022-09-25T14:45:30.938Z,3.40
2022-09-25T14:48:47.676Z,2.58
2022-09-25T14:51:58.744Z,3.25
2022-09-25T14:55:07.105Z,2.60
2022-09-25T14:58:12.951Z,4.65
2022-09-25T15:01:45.857Z,4.28
2022-09-25T15:04:51.321Z,4.10
2022-09-25T15:07:57.937Z,4.03
2022-09-25T15:11:03.605Z,3.22
2022-09-25T15:14:09.778Z,3.70
2022-09-25T15:17:31.927Z,3.62
2022-09-25T15:20:38.173Z,3.20
2022-09-25T15:23:45.094Z,4.10
2022-09-25T15:26:54.428Z,2.83
2022-09-25T15:30:00.617Z,3.55
2022-09-25T15:33:09.146Z,6.87
2022-09-25T15:36:16.255Z,3.75
2022-09-25T15:39:31.173Z,16.57
2022-09-25T15:42:37.220Z,14.87
2022-09-25T15:46:02.103Z,13.50
2022-09-25T15:49:12.860Z,22.22
2022-09-25T15:52:36.453Z,25.75
2022-09-25T15:55:46.008Z,22.93
2022-09-25T15:59:02.459Z,18.87
2022-09-25T16:02:26.218Z,16.30
2022-09-25T16:05:36.810Z,22.77
2022-09-25T16:08:47.716Z,21.17
2022-09-25T16:11:56.571Z,17.85
2022-09-25T16:15:03.167Z,16.97
2022-09-25T16:18:18.533Z,14.45
2022-09-25T16:21:42.591Z,12.53
2022-09-25T16:24:49.460Z,35.10
2022-09-25T16:27:58.106Z,29.48
2022-09-25T16:31:15.403Z,27.50
2022-09-25T16:34:23.639Z,20.43
2022-09-25T16:37:35.147Z,21.02
2022-09-25T16:40:45.905Z,20.25
2022-09-25T16:47:20.634Z,27.37
2022-09-25T16:50:27.610Z,33.65
2022-09-25T16:53:34.069Z,52.23
2022-09-25T16:56:47.850Z,55.88
2022-09-25T16:59:54.350Z,51.35
2022-09-25T17:03:01.391Z,41.88
2022-09-25T17:06:07.403Z,28.20
2022-09-25T17:09:13.952Z,28.32
2022-09-25T17:12:25.352Z,22.80
2022-09-25T17:15:39.270Z,22.20
2022-09-25T17:18:45.582Z,21.55
2022-09-25T17:21:52.153Z,27.40
2022-09-25T17:24:58.930Z,23.40
2022-09-25T17:28:06.989Z,32.53
2022-09-25T17:31:14.614Z,30.92
2022-09-25T17:34:36.729Z,27.42
2022-09-25T17:37:42.841Z,26.62
2022-09-25T17:40:49.674Z,31.15
2022-09-25T17:43:56.936Z,32.88
2022-09-25T17:47:06.402Z,30.60
2022-09-25T17:50:11.796Z,33.20
2022-09-25T17:53:18.179Z,35.52
2022-09-25T17:56:26.507Z,30.60
2022-09-25T17:59:32.265Z,36.63
2022-09-25T18:02:38.665Z,35.50
2022-09-25T18:05:44.468Z,33.58
2022-09-25T18:08:52.260Z,30.00
2022-09-25T18:11:59.506Z,26.07
2022-09-25T18:15:00.015Z,27.22
2022-09-25T18:18:06.287Z,25.40
2022-09-25T18:21:31.399Z,22.58
2022-09-25T18:24:38.716Z,22.32
2022-09-25T18:27:49.124Z,31.48
2022-09-25T18:30:56.081Z,37.63
2022-09-25T18:34:02.857Z,32.15
2022-09-25T18:37:09.500Z,45.83
2022-09-25T18:40:15.550Z,46.53
2022-09-25T18:43:21.660Z,51.80
2022-09-25T18:46:27.337Z,51.85
2022-09-25T18:49:33.849Z,52.83
2022-09-25T18:52:40.194Z,51.70
2022-09-25T18:55:49.856Z,46.02
2022-09-25T18:58:58.210Z,49.55
2022-09-25T19:02:04.350Z,44.90
2022-09-25T19:05:12.666Z,47.00
2022-09-25T19:08:18.123Z,43.50
2022-09-25T19:11:29.463Z,39.98
2022-09-25T19:14:38.796Z,42.90
2022-09-25T19:17:46.849Z,43.40
2022-09-25T19:20:53.722Z,39.95
2022-09-25T19:24:05.626Z,39.83
2022-09-25T19:27:11.794Z,35.52
2022-09-25T19:30:17.876Z,45.35
2022-09-25T19:33:23.859Z,49.03
2022-09-25T19:36:39.559Z,42.20
2022-09-25T19:39:48.922Z,42.25
2022-09-25T19:42:56.176Z,38.85
2022-09-25T19:46:06.655Z,42.55
2022-09-25T19:49:13.567Z,42.83
2022-09-25T19:52:24.487Z,50.80
2022-09-25T19:55:32.087Z,42.33
2022-09-25T19:58:38.466Z,50.33
2022-09-25T20:01:45.902Z,44.73
2022-09-25T20:04:57.003Z,49.63
2022-09-25T20:08:03.158Z,42.15
2022-09-25T20:11:10.738Z,41.15
2022-09-25T20:14:17.811Z,38.95
2022-09-25T20:17:24.570Z,45.10
2022-09-25T20:20:32.608Z,38.98
2022-09-25T20:23:38.167Z,36.00
2022-09-25T20:26:46.841Z,33.25
2022-09-25T20:29:52.457Z,26.45
2022-09-25T20:32:59.669Z,24.25
2022-09-25T20:36:05.943Z,25.43
2022-09-25T20:39:16.808Z,24.23
2022-09-25T20:42:20.364Z,24.47
2022-09-25T20:45:26.758Z,24.10
2022-09-25T20:48:34.154Z,32.30
2022-09-25T20:51:44.857Z,34.88
2022-09-25T20:54:50.768Z,27.20
2022-09-25T20:57:58.648Z,29.02
2022-09-25T21:01:04.910Z,29.98
2022-09-25T21:04:12.705Z,33.85
2022-09-25T21:07:18.744Z,35.73
2022-09-25T21:10:24.274Z,31.73
2022-09-25T21:13:33.244Z,30.60
2022-09-25T21:16:39.968Z,25.88
2022-09-25T21:19:47.071Z,28.62
2022-09-25T21:22:55.106Z,30.75
2022-09-25T21:26:03.193Z,30.00
2022-09-25T21:29:10.704Z,29.45
2022-09-25T21:32:16.560Z,38.63
2022-09-25T21:35:22.208Z,54.13
2022-09-25T21:38:27.638Z,49.83
2022-09-25T21:41:39.485Z,51.37
2022-09-25T21:44:45.911Z,45.15
2022-09-25T21:47:54.375Z,34.75
2022-09-25T21:51:12.567Z,34.25
2022-09-25T21:54:18.749Z,40.80
2022-09-25T21:57:27.020Z,30.10
2022-09-25T22:00:35.034Z,30.70
2022-09-25T22:03:42.300Z,30.43
2022-09-25T22:06:54.875Z,28.47
2022-09-25T22:10:01.363Z,34.48
2022-09-25T22:13:10.037Z,31.50
2022-09-25T22:16:17.925Z,25.48
2022-09-25T22:19:32.674Z,26.95
2022-09-25T22:22:38.385Z,22.73
2022-09-25T22:25:44.083Z,23.45
2022-09-25T22:28:52.139Z,23.98
2022-09-25T22:31:58.116Z,28.15
2022-09-25T22:35:03.947Z,24.67
2022-09-25T22:38:09.948Z,26.65
2022-09-25T22:41:25.512Z,24.70
2022-09-25T22:44:32.078Z,25.57
2022-09-25T22:47:38.879Z,24.25
2022-09-25T22:50:44.647Z,23.25
2022-09-25T22:53:50.414Z,26.30
2022-09-25T22:56:57.960Z,22.77
2022-09-25T23:00:05.116Z,26.65
2022-09-25T23:03:13.267Z,23.35
2022-09-25T23:06:19.485Z,20.90
2022-09-25T23:09:28.557Z,21.20
2022-09-25T23:12:36.389Z,20.90
2022-09-25T23:15:41.351Z,22.48
2022-09-25T23:18:52.125Z,20.35
2022-09-25T23:21:58.321Z,15.20
2022-09-25T23:25:04.707Z,16.80
2022-09-25T23:28:10.810Z,19.50
2022-09-25T23:31:27.019Z,21.82
2022-09-25T23:34:32.379Z,25.40
2022-09-25T23:37:38.192Z,20.82
2022-09-25T23:40:44.653Z,18.82
2022-09-25T23:43:52.957Z,16.27
2022-09-25T23:46:59.977Z,17.45
2022-09-25T23:50:08.412Z,20.12
2022-09-25T23:53:14.576Z,20.72
2022-09-25T23:56:22.933Z,15.48
2022-09-25T23:59:29.620Z,22.55
